Aviation Digital Data Service (ADDS)

Output produced by METARs form (1154 UTC 25 June 2019)
found at http://www.aviationweather.gov/metar/data/
 
METAR text: WMSA 251100Z 15006KT 100V190 9999 FEW024 SCT140 BKN270 32/25 Q1008
Conditions at: WMSA (KUALA LUMPUR SA , MY) observed 1100 UTC 25 June 2019
Temperature: 32.0°C (90°F)
Dewpoint: 25.0°C (77°F) [RH = 67%]
Pressure (altimeter): 29.76 inches Hg (1008.0 mb)
Winds: from the SSE (150 degrees) at 7 MPH (6 knots; 3.1 m/s)
Visibility: 6 or more miles (10+ km)
Ceiling: 27000 feet AGL
Clouds: few clouds at 2400 feet AGL
scattered clouds at 14000 feet AGL
broken clouds at 27000 feet AGL
Weather: no significant weather observed at this time

METAR text: WMSA 251000Z 16004KT 100V240 9999 FEW018 SCT140 BKN270 32/24 Q1008
Conditions at: WMSA (KUALA LUMPUR SA , MY) observed 1000 UTC 25 June 2019
Temperature: 32.0°C (90°F)
Dewpoint: 24.0°C (75°F) [RH = 63%]
Pressure (altimeter): 29.76 inches Hg (1008.0 mb)
Winds: from the SSE (160 degrees) at 5 MPH (4 knots; 2.1 m/s)
Visibility: 6 or more miles (10+ km)
Ceiling: 27000 feet AGL
Clouds: few clouds at 1800 feet AGL
scattered clouds at 14000 feet AGL
broken clouds at 27000 feet AGL
Weather: no significant weather observed at this time

METAR text: WMSA 250900Z 17007KT 120V210 9999 FEW017CB SCT140 BKN270 32/23 Q1008
Conditions at: WMSA (KUALA LUMPUR SA , MY) observed 0900 UTC 25 June 2019
Temperature: 32.0°C (90°F)
Dewpoint: 23.0°C (73°F) [RH = 59%]
Pressure (altimeter): 29.76 inches Hg (1008.0 mb)
Winds: from the S (170 degrees) at 8 MPH (7 knots; 3.6 m/s)
Visibility: 6 or more miles (10+ km)
Ceiling: 27000 feet AGL
Clouds: few clouds at 1700 feet AGL
scattered clouds at 14000 feet AGL
broken clouds at 27000 feet AGL
Weather: no significant weather observed at this time

METAR text: WMSA 250800Z VRB09KT 9999 FEW019 SCT140 BKN270 34/25 Q1008
Conditions at: WMSA (KUALA LUMPUR SA , MY) observed 0800 UTC 25 June 2019
Temperature: 34.0°C (93°F)
Dewpoint: 25.0°C (77°F) [RH = 60%]
Pressure (altimeter): 29.76 inches Hg (1008.0 mb)
Winds: variable direction winds at 10 MPH (9 knots; 4.6 m/s)
Visibility: 6 or more miles (10+ km)
Ceiling: 27000 feet AGL
Clouds: few clouds at 1900 feet AGL
scattered clouds at 14000 feet AGL
broken clouds at 27000 feet AGL
Weather: no significant weather observed at this time

METAR text: WMSA 250700Z 16010KT 100V190 9999 SCT019 SCT140 BKN270 34/25 Q1009
Conditions at: WMSA (KUALA LUMPUR SA , MY) observed 0700 UTC 25 June 2019
Temperature: 34.0°C (93°F)
Dewpoint: 25.0°C (77°F) [RH = 60%]
Pressure (altimeter): 29.79 inches Hg (1009.0 mb)
Winds: from the SSE (160 degrees) at 12 MPH (10 knots; 5.1 m/s)
Visibility: 6 or more miles (10+ km)
Ceiling: 27000 feet AGL
Clouds: scattered clouds at 1900 feet AGL
scattered clouds at 14000 feet AGL
broken clouds at 27000 feet AGL
Weather: no significant weather observed at this time

METAR text: WMSA 250600Z 16011KT 120V190 9999 FEW017CB SCT140 BKN270 33/25 Q1009
Conditions at: WMSA (KUALA LUMPUR SA , MY) observed 0600 UTC 25 June 2019
Temperature: 33.0°C (91°F)
Dewpoint: 25.0°C (77°F) [RH = 63%]
Pressure (altimeter): 29.79 inches Hg (1009.0 mb)
Winds: from the SSE (160 degrees) at 13 MPH (11 knots; 5.7 m/s)
Visibility: 6 or more miles (10+ km)
Ceiling: 27000 feet AGL
Clouds: few clouds at 1700 feet AGL
scattered clouds at 14000 feet AGL
broken clouds at 27000 feet AGL
Weather: no significant weather observed at this time

METAR text: WMSA 250500Z 17010KT 140V210 9999 FEW018TCU SCT140 BKN270 33/26 Q1010
Conditions at: WMSA (KUALA LUMPUR SA , MY) observed 0500 UTC 25 June 2019
Temperature: 33.0°C (91°F)
Dewpoint: 26.0°C (79°F) [RH = 67%]
Pressure (altimeter): 29.82 inches Hg (1010.0 mb)
Winds: from the S (170 degrees) at 12 MPH (10 knots; 5.1 m/s)
Visibility: 6 or more miles (10+ km)
Ceiling: 27000 feet AGL
Clouds: few clouds at 1800 feet AGL
scattered clouds at 14000 feet AGL
broken clouds at 27000 feet AGL
Weather: no significant weather observed at this time

METAR text: WMSA 250400Z 14007KT 070V210 9999 SCT018 SCT140 BKN270 33/25 Q1011
Conditions at: WMSA (KUALA LUMPUR SA , MY) observed 0400 UTC 25 June 2019
Temperature: 33.0°C (91°F)
Dewpoint: 25.0°C (77°F) [RH = 63%]
Pressure (altimeter): 29.85 inches Hg (1011.0 mb)
Winds: from the SE (140 degrees) at 8 MPH (7 knots; 3.6 m/s)
Visibility: 6 or more miles (10+ km)
Ceiling: 27000 feet AGL
Clouds: scattered clouds at 1800 feet AGL
scattered clouds at 14000 feet AGL
broken clouds at 27000 feet AGL
Weather: no significant weather observed at this time

METAR text: WMSA 250300Z 13009KT 080V190 9999 SCT018 SCT140 BKN270 31/25 Q1012
Conditions at: WMSA (KUALA LUMPUR SA , MY) observed 0300 UTC 25 June 2019
Temperature: 31.0°C (88°F)
Dewpoint: 25.0°C (77°F) [RH = 71%]
Pressure (altimeter): 29.88 inches Hg (1012.0 mb)
Winds: from the SE (130 degrees) at 10 MPH (9 knots; 4.6 m/s)
Visibility: 6 or more miles (10+ km)
Ceiling: 27000 feet AGL
Clouds: scattered clouds at 1800 feet AGL
scattered clouds at 14000 feet AGL
broken clouds at 27000 feet AGL
Weather: no significant weather observed at this time

METAR text: WMSA 250200Z 14007KT 080V210 9999 FEW017CB SCT140 BKN270 30/25 Q1012
Conditions at: WMSA (KUALA LUMPUR SA , MY) observed 0200 UTC 25 June 2019
Temperature: 30.0°C (86°F)
Dewpoint: 25.0°C (77°F) [RH = 75%]
Pressure (altimeter): 29.88 inches Hg (1012.0 mb)
Winds: from the SE (140 degrees) at 8 MPH (7 knots; 3.6 m/s)
Visibility: 6 or more miles (10+ km)
Ceiling: 27000 feet AGL
Clouds: few clouds at 1700 feet AGL
scattered clouds at 14000 feet AGL
broken clouds at 27000 feet AGL
Weather: no significant weather observed at this time

METAR text: WMSA 250100Z VRB03KT 9999 FEW017CB SCT140 BKN270 29/25 Q1011
Conditions at: WMSA (KUALA LUMPUR SA , MY) observed 0100 UTC 25 June 2019
Temperature: 29.0°C (84°F)
Dewpoint: 25.0°C (77°F) [RH = 79%]
Pressure (altimeter): 29.85 inches Hg (1011.0 mb)
Winds: variable direction winds at 3 MPH (3 knots; 1.5 m/s)
Visibility: 6 or more miles (10+ km)
Ceiling: 27000 feet AGL
Clouds: few clouds at 1700 feet AGL
scattered clouds at 14000 feet AGL
broken clouds at 27000 feet AGL
Weather: no significant weather observed at this time

METAR text: WMSA 250000Z 00000KT 9999 FEW017CB BKN140 BKN270 27/25 Q1011
Conditions at: WMSA (KUALA LUMPUR SA , MY) observed 0000 UTC 25 June 2019
Temperature: 27.0°C (81°F)
Dewpoint: 25.0°C (77°F) [RH = 89%]
Pressure (altimeter): 29.85 inches Hg (1011.0 mb)
Winds: calm
Visibility: 6 or more miles (10+ km)
Ceiling: 14000 feet AGL
Clouds: few clouds at 1700 feet AGL
broken clouds at 14000 feet AGL
broken clouds at 27000 feet AGL
Weather: no significant weather observed at this time

METAR text: WMSA 242300Z 00000KT 9999 FEW017CB BKN140 BKN270 27/24 Q1010
Conditions at: WMSA (KUALA LUMPUR SA , MY) observed 2300 UTC 24 June 2019
Temperature: 27.0°C (81°F)
Dewpoint: 24.0°C (75°F) [RH = 84%]
Pressure (altimeter): 29.82 inches Hg (1010.0 mb)
Winds: calm
Visibility: 6 or more miles (10+ km)
Ceiling: 14000 feet AGL
Clouds: few clouds at 1700 feet AGL
broken clouds at 14000 feet AGL
broken clouds at 27000 feet AGL
Weather: no significant weather observed at this time

METAR text: WMSA 242200Z 00000KT 9000 FEW017CB SCT140 BKN270 27/25 Q1010
Conditions at: WMSA (KUALA LUMPUR SA , MY) observed 2200 UTC 24 June 2019
Temperature: 27.0°C (81°F)
Dewpoint: 25.0°C (77°F) [RH = 89%]
Pressure (altimeter): 29.82 inches Hg (1010.0 mb)
Winds: calm
Visibility: 6 miles ( 9 km)
Ceiling: 27000 feet AGL
Clouds: few clouds at 1700 feet AGL
scattered clouds at 14000 feet AGL
broken clouds at 27000 feet AGL
Weather: no significant weather observed at this time

METAR text: WMSA 242100Z VRB01KT 9000 FEW017CB SCT140 BKN270 27/24 Q1009
Conditions at: WMSA (KUALA LUMPUR SA , MY) observed 2100 UTC 24 June 2019
Temperature: 27.0°C (81°F)
Dewpoint: 24.0°C (75°F) [RH = 84%]
Pressure (altimeter): 29.79 inches Hg (1009.0 mb)
Winds: variable direction winds at 1 MPH (1 knots; 0.5 m/s)
Visibility: 6 miles ( 9 km)
Ceiling: 27000 feet AGL
Clouds: few clouds at 1700 feet AGL
scattered clouds at 14000 feet AGL
broken clouds at 27000 feet AGL
Weather: no significant weather observed at this time

METAR text: WMSA 242000Z VRB01KT 9000 FEW026 SCT140 BKN270 28/25 Q1009
Conditions at: WMSA (KUALA LUMPUR SA , MY) observed 2000 UTC 24 June 2019
Temperature: 28.0°C (82°F)
Dewpoint: 25.0°C (77°F) [RH = 84%]
Pressure (altimeter): 29.79 inches Hg (1009.0 mb)
Winds: variable direction winds at 1 MPH (1 knots; 0.5 m/s)
Visibility: 6 miles ( 9 km)
Ceiling: 27000 feet AGL
Clouds: few clouds at 2600 feet AGL
scattered clouds at 14000 feet AGL
broken clouds at 27000 feet AGL
Weather: no significant weather observed at this time

METAR text: WMSA 241900Z 00000KT 9000 FEW026 SCT140 BKN270 28/25 Q1009
Conditions at: WMSA (KUALA LUMPUR SA , MY) observed 1900 UTC 24 June 2019
Temperature: 28.0°C (82°F)
Dewpoint: 25.0°C (77°F) [RH = 84%]
Pressure (altimeter): 29.79 inches Hg (1009.0 mb)
Winds: calm
Visibility: 6 miles ( 9 km)
Ceiling: 27000 feet AGL
Clouds: few clouds at 2600 feet AGL
scattered clouds at 14000 feet AGL
broken clouds at 27000 feet AGL
Weather: no significant weather observed at this time

METAR text: WMSA 241800Z 00000KT 9000 FEW026 SCT140 BKN270 28/24 Q1010
Conditions at: WMSA (KUALA LUMPUR SA , MY) observed 1800 UTC 24 June 2019
Temperature: 28.0°C (82°F)
Dewpoint: 24.0°C (75°F) [RH = 79%]
Pressure (altimeter): 29.82 inches Hg (1010.0 mb)
Winds: calm
Visibility: 6 miles ( 9 km)
Ceiling: 27000 feet AGL
Clouds: few clouds at 2600 feet AGL
scattered clouds at 14000 feet AGL
broken clouds at 27000 feet AGL
Weather: no significant weather observed at this time

METAR text: WMSA 241700Z 00000KT 9000 FEW026 SCT140 BKN270 28/25 Q1010
Conditions at: WMSA (KUALA LUMPUR SA , MY) observed 1700 UTC 24 June 2019
Temperature: 28.0°C (82°F)
Dewpoint: 25.0°C (77°F) [RH = 84%]
Pressure (altimeter): 29.82 inches Hg (1010.0 mb)
Winds: calm
Visibility: 6 miles ( 9 km)
Ceiling: 27000 feet AGL
Clouds: few clouds at 2600 feet AGL
scattered clouds at 14000 feet AGL
broken clouds at 27000 feet AGL
Weather: no significant weather observed at this time

METAR text: WMSA 241600Z VRB02KT 9999 FEW026 SCT140 BKN270 29/24 Q1011
Conditions at: WMSA (KUALA LUMPUR SA , MY) observed 1600 UTC 24 June 2019
Temperature: 29.0°C (84°F)
Dewpoint: 24.0°C (75°F) [RH = 74%]
Pressure (altimeter): 29.85 inches Hg (1011.0 mb)
Winds: variable direction winds at 2 MPH (2 knots; 1.0 m/s)
Visibility: 6 or more miles (10+ km)
Ceiling: 27000 feet AGL
Clouds: few clouds at 2600 feet AGL
scattered clouds at 14000 feet AGL
broken clouds at 27000 feet AGL
Weather: no significant weather observed at this time

METAR text: WMSA 241500Z VRB02KT 9999 FEW026 BKN270 29/24 Q1010
Conditions at: WMSA (KUALA LUMPUR SA , MY) observed 1500 UTC 24 June 2019
Temperature: 29.0°C (84°F)
Dewpoint: 24.0°C (75°F) [RH = 74%]
Pressure (altimeter): 29.82 inches Hg (1010.0 mb)
Winds: variable direction winds at 2 MPH (2 knots; 1.0 m/s)
Visibility: 6 or more miles (10+ km)
Ceiling: 27000 feet AGL
Clouds: few clouds at 2600 feet AGL
broken clouds at 27000 feet AGL
Weather: no significant weather observed at this time

METAR text: WMSA 241400Z 13004KT 080V170 9999 FEW026 BKN270 30/24 Q1010
Conditions at: WMSA (KUALA LUMPUR SA , MY) observed 1400 UTC 24 June 2019
Temperature: 30.0°C (86°F)
Dewpoint: 24.0°C (75°F) [RH = 70%]
Pressure (altimeter): 29.82 inches Hg (1010.0 mb)
Winds: from the SE (130 degrees) at 5 MPH (4 knots; 2.1 m/s)
Visibility: 6 or more miles (10+ km)
Ceiling: 27000 feet AGL
Clouds: few clouds at 2600 feet AGL
broken clouds at 27000 feet AGL
Weather: no significant weather observed at this time

METAR text: WMSA 241300Z 14004KT 100V190 9999 FEW026 BKN270 30/23 Q1009
Conditions at: WMSA (KUALA LUMPUR SA , MY) observed 1300 UTC 24 June 2019
Temperature: 30.0°C (86°F)
Dewpoint: 23.0°C (73°F) [RH = 66%]
Pressure (altimeter): 29.79 inches Hg (1009.0 mb)
Winds: from the SE (140 degrees) at 5 MPH (4 knots; 2.1 m/s)
Visibility: 6 or more miles (10+ km)
Ceiling: 27000 feet AGL
Clouds: few clouds at 2600 feet AGL
broken clouds at 27000 feet AGL
Weather: no significant weather observed at this time

METAR text: WMSA 241200Z 15003KT 120V190 9999 FEW026 BKN140 BKN270 30/24 Q1008
Conditions at: WMSA (KUALA LUMPUR SA , MY) observed 1200 UTC 24 June 2019
Temperature: 30.0°C (86°F)
Dewpoint: 24.0°C (75°F) [RH = 70%]
Pressure (altimeter): 29.76 inches Hg (1008.0 mb)
Winds: from the SSE (150 degrees) at 3 MPH (3 knots; 1.5 m/s)
Visibility: 6 or more miles (10+ km)
Ceiling: 14000 feet AGL
Clouds: few clouds at 2600 feet AGL
broken clouds at 14000 feet AGL
broken clouds at 27000 feet AGL
Weather: no significant weather observed at this time

METAR text: WMSA 241100Z 13005KT 060V210 9999 FEW026 BKN140 BKN270 31/24 Q1008
Conditions at: WMSA (KUALA LUMPUR SA , MY) observed 1100 UTC 24 June 2019
Temperature: 31.0°C (88°F)
Dewpoint: 24.0°C (75°F) [RH = 66%]
Pressure (altimeter): 29.76 inches Hg (1008.0 mb)
Winds: from the SE (130 degrees) at 6 MPH (5 knots; 2.6 m/s)
Visibility: 6 or more miles (10+ km)
Ceiling: 14000 feet AGL
Clouds: few clouds at 2600 feet AGL
broken clouds at 14000 feet AGL
broken clouds at 27000 feet AGL
Weather: no significant weather observed at this time

METAR text: WMSA 241000Z 16009KT 120V190 9999 FEW018 SCT140 BKN270 32/24 Q1007
Conditions at: WMSA (KUALA LUMPUR SA , MY) observed 1000 UTC 24 June 2019
Temperature: 32.0°C (90°F)
Dewpoint: 24.0°C (75°F) [RH = 63%]
Pressure (altimeter): 29.73 inches Hg (1007.0 mb)
Winds: from the SSE (160 degrees) at 10 MPH (9 knots; 4.6 m/s)
Visibility: 6 or more miles (10+ km)
Ceiling: 27000 feet AGL
Clouds: few clouds at 1800 feet AGL
scattered clouds at 14000 feet AGL
broken clouds at 27000 feet AGL
Weather: no significant weather observed at this time

METAR text: WMSA 240900Z 16009KT 120V210 9999 FEW018 SCT140 BKN270 33/23 Q1007
Conditions at: WMSA (KUALA LUMPUR SA , MY) observed 0900 UTC 24 June 2019
Temperature: 33.0°C (91°F)
Dewpoint: 23.0°C (73°F) [RH = 56%]
Pressure (altimeter): 29.73 inches Hg (1007.0 mb)
Winds: from the SSE (160 degrees) at 10 MPH (9 knots; 4.6 m/s)
Visibility: 6 or more miles (10+ km)
Ceiling: 27000 feet AGL
Clouds: few clouds at 1800 feet AGL
scattered clouds at 14000 feet AGL
broken clouds at 27000 feet AGL
Weather: no significant weather observed at this time

METAR text: WMSA 240800Z 17008KT 120V210 9999 FEW018 SCT140 BKN270 33/23 Q1007
Conditions at: WMSA (KUALA LUMPUR SA , MY) observed 0800 UTC 24 June 2019
Temperature: 33.0°C (91°F)
Dewpoint: 23.0°C (73°F) [RH = 56%]
Pressure (altimeter): 29.73 inches Hg (1007.0 mb)
Winds: from the S (170 degrees) at 9 MPH (8 knots; 4.1 m/s)
Visibility: 6 or more miles (10+ km)
Ceiling: 27000 feet AGL
Clouds: few clouds at 1800 feet AGL
scattered clouds at 14000 feet AGL
broken clouds at 27000 feet AGL
Weather: no significant weather observed at this time

METAR text: WMSA 240700Z 15009KT 060V210 9999 FEW018 SCT140 BKN270 33/23 Q1007
Conditions at: WMSA (KUALA LUMPUR SA , MY) observed 0700 UTC 24 June 2019
Temperature: 33.0°C (91°F)
Dewpoint: 23.0°C (73°F) [RH = 56%]
Pressure (altimeter): 29.73 inches Hg (1007.0 mb)
Winds: from the SSE (150 degrees) at 10 MPH (9 knots; 4.6 m/s)
Visibility: 6 or more miles (10+ km)
Ceiling: 27000 feet AGL
Clouds: few clouds at 1800 feet AGL
scattered clouds at 14000 feet AGL
broken clouds at 27000 feet AGL
Weather: no significant weather observed at this time

METAR text: WMSA 240600Z 16008KT 100V210 9999 FEW018 SCT140 BKN270 33/23 Q1009
Conditions at: WMSA (KUALA LUMPUR SA , MY) observed 0600 UTC 24 June 2019
Temperature: 33.0°C (91°F)
Dewpoint: 23.0°C (73°F) [RH = 56%]
Pressure (altimeter): 29.79 inches Hg (1009.0 mb)
Winds: from the SSE (160 degrees) at 9 MPH (8 knots; 4.1 m/s)
Visibility: 6 or more miles (10+ km)
Ceiling: 27000 feet AGL
Clouds: few clouds at 1800 feet AGL
scattered clouds at 14000 feet AGL
broken clouds at 27000 feet AGL
Weather: no significant weather observed at this time

METAR text: WMSA 240500Z 16010KT 080V210 9999 FEW018 SCT140 BKN270 33/23 Q1010
Conditions at: WMSA (KUALA LUMPUR SA , MY) observed 0500 UTC 24 June 2019
Temperature: 33.0°C (91°F)
Dewpoint: 23.0°C (73°F) [RH = 56%]
Pressure (altimeter): 29.82 inches Hg (1010.0 mb)
Winds: from the SSE (160 degrees) at 12 MPH (10 knots; 5.1 m/s)
Visibility: 6 or more miles (10+ km)
Ceiling: 27000 feet AGL
Clouds: few clouds at 1800 feet AGL
scattered clouds at 14000 feet AGL
broken clouds at 27000 feet AGL
Weather: no significant weather observed at this time

METAR text: WMSA 240400Z 17010KT 120V230 9999 FEW017CB SCT140 BKN270 32/23 Q1011
Conditions at: WMSA (KUALA LUMPUR SA , MY) observed 0400 UTC 24 June 2019
Temperature: 32.0°C (90°F)
Dewpoint: 23.0°C (73°F) [RH = 59%]
Pressure (altimeter): 29.85 inches Hg (1011.0 mb)
Winds: from the S (170 degrees) at 12 MPH (10 knots; 5.1 m/s)
Visibility: 6 or more miles (10+ km)
Ceiling: 27000 feet AGL
Clouds: few clouds at 1700 feet AGL
scattered clouds at 14000 feet AGL
broken clouds at 27000 feet AGL
Weather: no significant weather observed at this time

METAR text: WMSA 240300Z 18012KT 150V210 9999 FEW017CB SCT140 BKN270 31/22 Q1011
Conditions at: WMSA (KUALA LUMPUR SA , MY) observed 0300 UTC 24 June 2019
Temperature: 31.0°C (88°F)
Dewpoint: 22.0°C (72°F) [RH = 59%]
Pressure (altimeter): 29.85 inches Hg (1011.0 mb)
Winds: from the S (180 degrees) at 14 MPH (12 knots; 6.2 m/s)
Visibility: 6 or more miles (10+ km)
Ceiling: 27000 feet AGL
Clouds: few clouds at 1700 feet AGL
scattered clouds at 14000 feet AGL
broken clouds at 27000 feet AGL
Weather: no significant weather observed at this time

METAR text: WMSA 240200Z 15008KT 100V190 9999 FEW017CB BKN270 30/23 Q1011
Conditions at: WMSA (KUALA LUMPUR SA , MY) observed 0200 UTC 24 June 2019
Temperature: 30.0°C (86°F)
Dewpoint: 23.0°C (73°F) [RH = 66%]
Pressure (altimeter): 29.85 inches Hg (1011.0 mb)
Winds: from the SSE (150 degrees) at 9 MPH (8 knots; 4.1 m/s)
Visibility: 6 or more miles (10+ km)
Ceiling: 27000 feet AGL
Clouds: few clouds at 1700 feet AGL
broken clouds at 27000 feet AGL
Weather: no significant weather observed at this time

METAR text: WMSA 240100Z 13004KT 050V190 9999 FEW017CB SCT140 BKN270 29/24 Q1011
Conditions at: WMSA (KUALA LUMPUR SA , MY) observed 0100 UTC 24 June 2019
Temperature: 29.0°C (84°F)
Dewpoint: 24.0°C (75°F) [RH = 74%]
Pressure (altimeter): 29.85 inches Hg (1011.0 mb)
Winds: from the SE (130 degrees) at 5 MPH (4 knots; 2.1 m/s)
Visibility: 6 or more miles (10+ km)
Ceiling: 27000 feet AGL
Clouds: few clouds at 1700 feet AGL
scattered clouds at 14000 feet AGL
broken clouds at 27000 feet AGL
Weather: no significant weather observed at this time

METAR text: WMSA 240000Z VRB02KT 9999 FEW026 SCT140 BKN270 27/25 Q1010
Conditions at: WMSA (KUALA LUMPUR SA , MY) observed 0000 UTC 24 June 2019
Temperature: 27.0°C (81°F)
Dewpoint: 25.0°C (77°F) [RH = 89%]
Pressure (altimeter): 29.82 inches Hg (1010.0 mb)
Winds: variable direction winds at 2 MPH (2 knots; 1.0 m/s)
Visibility: 6 or more miles (10+ km)
Ceiling: 27000 feet AGL
Clouds: few clouds at 2600 feet AGL
scattered clouds at 14000 feet AGL
broken clouds at 27000 feet AGL
Weather: no significant weather observed at this time

Forecast for: WMSA (KUALA LUMPUR SA , MY)
Text: TAF WMSA 251100Z 2512/2612 13005KT 9999 FEW026
Forecast period: 1200 to 2000 UTC 25 June 2019
Forecast type: FROM: standard forecast or significant change
Winds: from the SE (130 degrees) at 6 MPH (5 knots; 2.6 m/s)
Visibility: 6 or more miles 10+ km)
Ceiling: at least 12,000 feet AGL
Clouds: few clouds at 2600 feet AGL
Weather: no significant weather forecast for this period
Text: BECMG 2520/2521 VRB01KT FEW017CB
Forecast period: 2000 UTC 25 June 2019 to 0200 UTC 26 June 2019
Forecast type: BECOMING: Conditions expected to become as follows by 2100 UTC 25 June 2019
Winds: variable direction winds at 1 MPH (1 knots; 0.5 m/s)
Visibility: 6 or more miles 10+ km)
Ceiling: at least 12,000 feet AGL
Clouds: few clouds at 1700 feet AGL
Weather: no significant weather forecast for this period
Text: BECMG 2602/2604 16010KT FEW018
Forecast period: 0200 to 1200 UTC 26 June 2019
Forecast type: BECOMING: Conditions expected to become as follows by 0400 UTC 26 June 2019
Winds: from the SSE (160 degrees) at 12 MPH (10 knots; 5.1 m/s)
Visibility: 6 or more miles 10+ km)
Ceiling: at least 12,000 feet AGL
Clouds: few clouds at 1800 feet AGL
Weather: no significant weather forecast for this period